createdAt,value
2023-03-07T00:04:47.145Z,-0.40
2023-03-07T00:12:22.564Z,-0.35
2023-03-07T00:19:56.458Z,-0.28
2023-03-07T00:27:34.171Z,-0.24
2023-03-07T00:35:08.808Z,-0.15
2023-03-07T00:42:44.189Z,-0.15
2023-03-07T00:50:18.310Z,-0.19
2023-03-07T00:57:53.760Z,-0.25
2023-03-07T01:05:27.629Z,-0.34
2023-03-07T01:13:03.054Z,-0.33
2023-03-07T01:20:38.338Z,-0.33
2023-03-07T01:28:15.842Z,-0.39
2023-03-07T01:35:49.901Z,-0.34
2023-03-07T01:43:26.103Z,-0.29
2023-03-07T01:51:00.173Z,-0.24
2023-03-07T01:58:35.984Z,-0.16
2023-03-07T02:06:12.512Z,-0.09
2023-03-07T02:13:47.820Z,0.02
2023-03-07T02:21:31.837Z,0.09
2023-03-07T02:29:07.605Z,0.17
2023-03-07T02:36:41.839Z,0.24
2023-03-07T02:44:17.331Z,0.29
2023-03-07T02:51:51.383Z,0.37
2023-03-07T02:59:26.722Z,0.42
2023-03-07T03:07:00.668Z,0.43
2023-03-07T03:14:36.167Z,0.45
2023-03-07T03:22:09.924Z,0.48
2023-03-07T03:29:45.478Z,0.53
2023-03-07T03:37:19.666Z,0.58
2023-03-07T03:44:54.801Z,0.61
2023-03-07T03:52:29.009Z,0.66
2023-03-07T04:00:08.469Z,0.71
2023-03-07T04:07:42.455Z,0.77
2023-03-07T04:15:17.810Z,0.80
2023-03-07T04:22:51.780Z,0.87
2023-03-07T04:30:27.384Z,0.93
2023-03-07T04:38:01.520Z,1.00
2023-03-07T04:45:38.320Z,1.00
2023-03-07T04:53:12.150Z,0.98
2023-03-07T05:00:47.395Z,0.99
2023-03-07T05:08:21.767Z,1.00
2023-03-07T05:15:58.650Z,1.00
2023-03-07T05:23:32.523Z,1.00
2023-03-07T05:31:08.321Z,1.03
2023-03-07T05:38:42.324Z,1.04
2023-03-07T05:46:18.191Z,1.06
2023-03-07T05:53:52.314Z,1.12
2023-03-07T06:01:27.507Z,1.14
2023-03-07T06:09:01.530Z,1.16
2023-03-07T06:16:36.913Z,1.21
2023-03-07T06:24:10.851Z,1.27
2023-03-07T06:31:46.146Z,1.31
2023-03-07T06:39:21.494Z,1.34
2023-03-07T06:46:56.875Z,1.34
2023-03-07T06:54:30.829Z,1.41
2023-03-07T07:02:07.093Z,1.45
2023-03-07T07:09:41.317Z,1.52
2023-03-07T07:17:16.662Z,1.58
2023-03-07T07:24:50.539Z,1.63
2023-03-07T07:32:26.266Z,1.72
2023-03-07T07:40:00.499Z,1.81
2023-03-07T07:47:35.833Z,1.85
2023-03-07T07:55:13.815Z,1.90
2023-03-07T08:10:44.213Z,1.99
2023-03-07T08:18:19.583Z,2.08
2023-03-07T08:25:53.836Z,2.15
2023-03-07T08:33:29.263Z,2.27
2023-03-07T08:41:04.028Z,2.43
2023-03-07T08:48:39.482Z,2.55
2023-03-07T08:56:15.707Z,2.74
2023-03-07T09:03:51.061Z,2.88
2023-03-07T09:11:26.812Z,2.97
2023-03-07T09:19:02.707Z,3.10
2023-03-07T09:26:36.621Z,3.28
2023-03-07T09:34:13.152Z,3.49
2023-03-07T09:42:00.554Z,3.73
2023-03-07T09:49:45.717Z,3.82
2023-03-07T09:57:25.609Z,3.85
2023-03-07T10:05:10.992Z,3.88
2023-03-07T10:13:00.456Z,3.92
2023-03-07T10:20:46.847Z,3.95
2023-03-07T10:28:25.081Z,4.04
2023-03-07T10:36:07.385Z,3.99
2023-03-07T10:43:41.807Z,3.98
2023-03-07T10:51:31.103Z,3.88
2023-03-07T10:59:10.795Z,3.79
2023-03-07T11:06:54.252Z,3.70
2023-03-07T11:14:30.968Z,3.54
2023-03-07T11:22:18.057Z,3.49
2023-03-07T11:30:26.429Z,3.56
2023-03-07T11:38:08.737Z,3.57
2023-03-07T11:45:52.151Z,3.58
2023-03-07T11:54:02.544Z,3.60
2023-03-07T12:01:48.009Z,3.58
2023-03-07T12:09:35.880Z,3.56
2023-03-07T12:17:24.122Z,3.50
2023-03-07T12:25:17.036Z,3.35
2023-03-07T12:32:52.816Z,3.27
2023-03-07T12:40:35.191Z,3.24
2023-03-07T12:48:19.103Z,3.07
2023-03-07T12:55:58.299Z,3.02
2023-03-07T13:03:38.734Z,3.01
2023-03-07T13:11:21.868Z,2.81
2023-03-07T13:18:55.819Z,2.80
2023-03-07T13:26:31.408Z,2.76
2023-03-07T13:59:05.316Z,2.74
2023-03-07T14:06:42.266Z,2.65
2023-03-07T14:14:43.693Z,2.70
2023-03-07T14:22:28.281Z,2.67
2023-03-07T14:37:55.020Z,2.67
2023-03-07T14:45:38.732Z,2.66
2023-03-07T14:53:20.713Z,2.71
2023-03-07T15:01:04.040Z,2.68
2023-03-07T15:08:38.489Z,2.67
2023-03-07T15:16:17.346Z,2.69
2023-03-07T15:23:55.587Z,2.68
2023-03-07T15:31:50.060Z,2.78
2023-03-07T15:39:34.824Z,2.82
2023-03-07T15:47:18.061Z,2.85
2023-03-07T15:54:53.673Z,2.85
2023-03-07T16:02:41.388Z,2.82
2023-03-07T16:10:15.705Z,2.83
2023-03-07T16:25:46.417Z,2.79
2023-03-07T16:33:22.125Z,2.78
2023-03-07T16:40:56.058Z,2.78
2023-03-07T16:48:31.640Z,2.73
2023-03-07T16:56:06.029Z,2.72
2023-03-07T17:03:41.136Z,2.66
2023-03-07T17:11:19.733Z,2.67
2023-03-07T17:18:55.399Z,2.63
2023-03-07T17:26:32.888Z,2.63
2023-03-07T17:34:08.309Z,2.60
2023-03-07T17:49:36.385Z,2.56
2023-03-07T17:57:10.996Z,2.53
2023-03-07T18:04:46.384Z,2.52
2023-03-07T18:12:20.343Z,2.48
2023-03-07T18:19:56.012Z,2.39
2023-03-07T18:27:30.046Z,2.39
2023-03-07T18:35:05.998Z,2.36
2023-03-07T18:42:40.401Z,2.35
2023-03-07T18:50:15.691Z,2.32
2023-03-07T18:57:49.390Z,2.28
2023-03-07T19:05:24.665Z,2.25
2023-03-07T19:12:58.599Z,2.22
2023-03-07T19:20:34.361Z,2.18
2023-03-07T19:28:08.115Z,2.12
2023-03-07T19:35:43.603Z,2.10
2023-03-07T19:43:17.462Z,2.06
2023-03-07T19:50:53.982Z,2.08
2023-03-07T19:58:27.908Z,2.06
2023-03-07T20:06:03.611Z,2.07
2023-03-07T20:13:37.606Z,2.06
2023-03-07T20:21:14.584Z,2.05
2023-03-07T20:28:48.596Z,2.04
2023-03-07T20:36:27.881Z,2.02
2023-03-07T20:44:04.511Z,2.01
2023-03-07T20:51:40.882Z,2.01
2023-03-07T21:07:10.127Z,1.95
2023-03-07T21:14:44.126Z,1.92
2023-03-07T21:22:19.418Z,1.89
2023-03-07T21:29:53.554Z,1.88
2023-03-07T21:37:28.791Z,1.85
2023-03-07T21:45:02.910Z,1.84
2023-03-07T21:52:38.183Z,1.77
2023-03-07T22:00:15.391Z,1.79
2023-03-07T22:07:51.842Z,1.74
2023-03-07T22:15:25.952Z,1.71
2023-03-07T22:23:01.152Z,1.70
2023-03-07T22:38:29.149Z,1.67
2023-03-07T22:46:03.980Z,1.63
2023-03-07T22:53:39.434Z,1.57
2023-03-07T23:01:14.571Z,1.53
2023-03-07T23:08:51.988Z,1.47
2023-03-07T23:16:27.652Z,1.45
2023-03-07T23:24:04.920Z,1.41
2023-03-07T23:39:33.288Z,1.38
2023-03-07T23:47:07.638Z,1.36
2023-03-07T23:54:45.707Z,1.30
